sensor_id;sensor_type;location;lat;lon;timestamp;pressure;altitude;pressure_sealevel;temperature;humidity
41862;BME280;27537;57.134;-2.136;2024-01-06T00:00:09;100304.84;;;3.40;100.00
41862;BME280;27537;57.134;-2.136;2024-01-06T00:02:36;100304.00;;;3.40;100.00
41862;BME280;27537;57.134;-2.136;2024-01-06T00:05:03;100314.22;;;3.46;100.00
41862;BME280;27537;57.134;-2.136;2024-01-06T00:07:30;100320.22;;;3.50;100.00
41862;BME280;27537;57.134;-2.136;2024-01-06T00:09:57;100318.56;;;3.46;100.00
41862;BME280;27537;57.134;-2.136;2024-01-06T00:12:23;100319.47;;;3.41;100.00
41862;BME280;27537;57.134;-2.136;2024-01-06T00:14:50;100320.19;;;3.51;100.00
41862;BME280;27537;57.134;-2.136;2024-01-06T00:17:17;100334.16;;;3.41;100.00
41862;BME280;27537;57.134;-2.136;2024-01-06T00:19:43;100311.22;;;3.16;100.00
41862;BME280;27537;57.134;-2.136;2024-01-06T00:22:10;100340.09;;;3.48;100.00
41862;BME280;27537;57.134;-2.136;2024-01-06T00:24:37;100344.28;;;3.58;100.00
41862;BME280;27537;57.134;-2.136;2024-01-06T00:27:04;100355.47;;;3.58;100.00
41862;BME280;27537;57.134;-2.136;2024-01-06T00:29:31;100355.44;;;3.60;100.00
41862;BME280;27537;57.134;-2.136;2024-01-06T00:31:57;100358.88;;;3.62;100.00
41862;BME280;27537;57.134;-2.136;2024-01-06T00:34:24;100363.38;;;3.51;100.00
41862;BME280;27537;57.134;-2.136;2024-01-06T00:36:51;100359.84;;;3.53;100.00
41862;BME280;27537;57.134;-2.136;2024-01-06T00:39:17;100361.41;;;3.67;100.00
41862;BME280;27537;57.134;-2.136;2024-01-06T00:41:45;100365.63;;;3.72;100.00
41862;BME280;27537;57.134;-2.136;2024-01-06T00:44:11;100367.44;;;3.67;100.00
41862;BME280;27537;57.134;-2.136;2024-01-06T00:46:39;100380.19;;;3.79;100.00
41862;BME280;27537;57.134;-2.136;2024-01-06T00:49:06;100374.25;;;3.71;100.00
41862;BME280;27537;57.134;-2.136;2024-01-06T00:51:32;100371.66;;;3.71;100.00
41862;BME280;27537;57.134;-2.136;2024-01-06T00:54:02;100375.38;;;3.55;100.00
41862;BME280;27537;57.134;-2.136;2024-01-06T00:56:29;100366.16;;;3.35;100.00
41862;BME280;27537;57.134;-2.136;2024-01-06T00:58:56;100374.84;;;3.31;100.00
41862;BME280;27537;57.134;-2.136;2024-01-06T01:01:22;100380.72;;;3.42;100.00
41862;BME280;27537;57.134;-2.136;2024-01-06T01:03:49;100383.13;;;3.56;100.00
41862;BME280;27537;57.134;-2.136;2024-01-06T01:06:16;100387.97;;;3.78;100.00
41862;BME280;27537;57.134;-2.136;2024-01-06T01:08:42;100391.94;;;4.01;100.00
41862;BME280;27537;57.134;-2.136;2024-01-06T01:11:09;100387.28;;;4.21;100.00
41862;BME280;27537;57.134;-2.136;2024-01-06T01:13:36;100391.28;;;4.39;100.00
41862;BME280;27537;57.134;-2.136;2024-01-06T01:16:03;100396.16;;;4.57;100.00
41862;BME280;27537;57.134;-2.136;2024-01-06T01:18:29;100380.66;;;4.53;100.00
41862;BME280;27537;57.134;-2.136;2024-01-06T01:20:56;100403.19;;;4.49;100.00
41862;BME280;27537;57.134;-2.136;2024-01-06T01:23:23;100391.06;;;4.51;100.00
41862;BME280;27537;57.134;-2.136;2024-01-06T01:25:49;100402.97;;;4.63;100.00
41862;BME280;27537;57.134;-2.136;2024-01-06T01:28:16;100407.34;;;4.60;100.00
41862;BME280;27537;57.134;-2.136;2024-01-06T01:30:43;100406.28;;;4.71;100.00
41862;BME280;27537;57.134;-2.136;2024-01-06T01:33:10;100405.41;;;4.71;100.00
41862;BME280;27537;57.134;-2.136;2024-01-06T01:35:37;100407.06;;;4.75;100.00
41862;BME280;27537;57.134;-2.136;2024-01-06T01:38:03;100414.66;;;4.84;100.00
41862;BME280;27537;57.134;-2.136;2024-01-06T01:40:30;100410.34;;;4.85;100.00
41862;BME280;27537;57.134;-2.136;2024-01-06T01:42:57;100412.91;;;4.86;100.00
41862;BME280;27537;57.134;-2.136;2024-01-06T01:45:23;100418.84;;;4.93;100.00
41862;BME280;27537;57.134;-2.136;2024-01-06T01:47:50;100420.50;;;4.95;100.00
41862;BME280;27537;57.134;-2.136;2024-01-06T01:50:17;100417.03;;;4.97;100.00
41862;BME280;27537;57.134;-2.136;2024-01-06T01:52:46;100412.69;;;4.97;100.00
41862;BME280;27537;57.134;-2.136;2024-01-06T01:55:13;100423.03;;;4.99;100.00
41862;BME280;27537;57.134;-2.136;2024-01-06T01:57:40;100422.16;;;5.00;100.00
41862;BME280;27537;57.134;-2.136;2024-01-06T02:00:08;100419.69;;;4.92;100.00
41862;BME280;27537;57.134;-2.136;2024-01-06T02:02:35;100421.59;;;4.85;100.00
41862;BME280;27537;57.134;-2.136;2024-01-06T02:05:02;100410.59;;;4.71;100.00
41862;BME280;27537;57.134;-2.136;2024-01-06T02:07:28;100422.66;;;4.73;100.00
41862;BME280;27537;57.134;-2.136;2024-01-06T02:09:55;100433.22;;;4.64;100.00
41862;BME280;27537;57.134;-2.136;2024-01-06T02:12:22;100427.72;;;4.31;100.00
41862;BME280;27537;57.134;-2.136;2024-01-06T02:14:48;100428.75;;;4.21;100.00
41862;BME280;27537;57.134;-2.136;2024-01-06T02:17:15;100428.00;;;4.14;100.00
41862;BME280;27537;57.134;-2.136;2024-01-06T02:19:42;100430.63;;;4.11;100.00
41862;BME280;27537;57.134;-2.136;2024-01-06T02:22:09;100429.84;;;4.06;100.00
41862;BME280;27537;57.134;-2.136;2024-01-06T02:24:35;100436.84;;;3.99;100.00
41862;BME280;27537;57.134;-2.136;2024-01-06T02:27:02;100443.00;;;3.92;100.00
41862;BME280;27537;57.134;-2.136;2024-01-06T02:29:29;100450.53;;;4.09;100.00
41862;BME280;27537;57.134;-2.136;2024-01-06T02:31:55;100445.53;;;3.98;100.00
41862;BME280;27537;57.134;-2.136;2024-01-06T02:34:22;100456.53;;;4.13;100.00
41862;BME280;27537;57.134;-2.136;2024-01-06T02:36:49;100460.06;;;4.07;100.00
41862;BME280;27537;57.134;-2.136;2024-01-06T02:39:15;100464.31;;;4.13;100.00
41862;BME280;27537;57.134;-2.136;2024-01-06T02:41:42;100465.91;;;4.22;100.00
41862;BME280;27537;57.134;-2.136;2024-01-06T02:44:09;100440.06;;;4.15;100.00
41862;BME280;27537;57.134;-2.136;2024-01-06T02:46:39;100470.94;;;4.31;100.00
41862;BME280;27537;57.134;-2.136;2024-01-06T02:49:07;100464.28;;;4.14;100.00
41862;BME280;27537;57.134;-2.136;2024-01-06T02:51:34;100471.88;;;4.27;100.00
41862;BME280;27537;57.134;-2.136;2024-01-06T02:54:01;100471.59;;;4.42;100.00
41862;BME280;27537;57.134;-2.136;2024-01-06T02:56:27;100473.28;;;4.46;100.00
41862;BME280;27537;57.134;-2.136;2024-01-06T02:58:54;100473.22;;;4.48;100.00
41862;BME280;27537;57.134;-2.136;2024-01-06T03:01:20;100480.84;;;4.59;100.00
41862;BME280;27537;57.134;-2.136;2024-01-06T03:03:47;100480.75;;;4.63;100.00
41862;BME280;27537;57.134;-2.136;2024-01-06T03:06:14;100491.94;;;4.67;100.00
41862;BME280;27537;57.134;-2.136;2024-01-06T03:08:41;100496.28;;;4.65;100.00
41862;BME280;27537;57.134;-2.136;2024-01-06T03:11:07;100490.25;;;4.66;100.00
41862;BME280;27537;57.134;-2.136;2024-01-06T03:13:34;100486.66;;;4.73;100.00
41862;BME280;27537;57.134;-2.136;2024-01-06T03:16:03;100497.88;;;4.73;100.00
41862;BME280;27537;57.134;-2.136;2024-01-06T03:18:31;100498.69;;;4.77;100.00
41862;BME280;27537;57.134;-2.136;2024-01-06T03:20:58;100500.34;;;4.80;100.00
41862;BME280;27537;57.134;-2.136;2024-01-06T03:23:25;100498.59;;;4.82;100.00
41862;BME280;27537;57.134;-2.136;2024-01-06T03:25:51;100508.06;;;4.84;100.00
41862;BME280;27537;57.134;-2.136;2024-01-06T03:28:18;100502.00;;;4.85;100.00
41862;BME280;27537;57.134;-2.136;2024-01-06T03:30:45;100493.44;;;4.80;100.00
41862;BME280;27537;57.134;-2.136;2024-01-06T03:33:12;100503.56;;;4.94;100.00
41862;BME280;27537;57.134;-2.136;2024-01-06T03:35:39;100500.00;;;5.00;100.00
41862;BME280;27537;57.134;-2.136;2024-01-06T03:38:05;100514.63;;;5.04;100.00
41862;BME280;27537;57.134;-2.136;2024-01-06T03:40:33;100500.78;;;5.05;100.00
41862;BME280;27537;57.134;-2.136;2024-01-06T03:43:00;100505.06;;;5.07;100.00
41862;BME280;27537;57.134;-2.136;2024-01-06T03:45:26;100511.09;;;5.08;100.00
41862;BME280;27537;57.134;-2.136;2024-01-06T03:47:53;100500.81;;;5.03;100.00
41862;BME280;27537;57.134;-2.136;2024-01-06T03:50:20;100517.97;;;5.10;100.00
41862;BME280;27537;57.134;-2.136;2024-01-06T03:52:47;100516.19;;;5.12;100.00
41862;BME280;27537;57.134;-2.136;2024-01-06T03:55:15;100515.34;;;5.12;100.00
41862;BME280;27537;57.134;-2.136;2024-01-06T03:57:43;100505.03;;;5.09;100.00
41862;BME280;27537;57.134;-2.136;2024-01-06T04:00:10;100521.47;;;5.08;100.00
41862;BME280;27537;57.134;-2.136;2024-01-06T04:02:37;100518.81;;;5.11;100.00
41862;BME280;27537;57.134;-2.136;2024-01-06T04:05:03;100526.56;;;5.14;100.00
41862;BME280;27537;57.134;-2.136;2024-01-06T04:07:31;100524.94;;;5.08;100.00
41862;BME280;27537;57.134;-2.136;2024-01-06T04:09:58;100528.31;;;5.13;100.00
41862;BME280;27537;57.134;-2.136;2024-01-06T04:12:25;100523.16;;;5.10;100.00
41862;BME280;27537;57.134;-2.136;2024-01-06T04:14:52;100530.16;;;5.07;100.00
41862;BME280;27537;57.134;-2.136;2024-01-06T04:17:19;100533.59;;;5.07;100.00
41862;BME280;27537;57.134;-2.136;2024-01-06T04:19:46;100537.03;;;5.08;100.00
41862;BME280;27537;57.134;-2.136;2024-01-06T04:22:13;100545.69;;;5.10;100.00
41862;BME280;27537;57.134;-2.136;2024-01-06T04:24:39;100536.19;;;5.07;100.00
41862;BME280;27537;57.134;-2.136;2024-01-06T04:27:07;100548.22;;;5.11;100.00
41862;BME280;27537;57.134;-2.136;2024-01-06T04:29:34;100544.81;;;5.09;100.00
41862;BME280;27537;57.134;-2.136;2024-01-06T04:32:00;100556.09;;;5.08;100.00
41862;BME280;27537;57.134;-2.136;2024-01-06T04:34:27;100529.56;;;4.92;100.00
41862;BME280;27537;57.134;-2.136;2024-01-06T04:36:54;100549.22;;;5.04;100.00
41862;BME280;27537;57.134;-2.136;2024-01-06T04:39:21;100540.56;;;5.05;100.00
41862;BME280;27537;57.134;-2.136;2024-01-06T04:41:47;100549.97;;;5.11;100.00
41862;BME280;27537;57.134;-2.136;2024-01-06T04:44:14;100560.31;;;5.12;100.00
41862;BME280;27537;57.134;-2.136;2024-01-06T04:46:40;100555.16;;;5.11;100.00
41862;BME280;27537;57.134;-2.136;2024-01-06T04:49:07;100559.47;;;5.12;100.00
41862;BME280;27537;57.134;-2.136;2024-01-06T04:51:34;100556.13;;;5.05;100.00
41862;BME280;27537;57.134;-2.136;2024-01-06T04:54:01;100557.09;;;5.00;100.00
41862;BME280;27537;57.134;-2.136;2024-01-06T04:56:27;100562.34;;;4.97;100.00
41862;BME280;27537;57.134;-2.136;2024-01-06T04:58:54;100551.22;;;4.88;100.00
41862;BME280;27537;57.134;-2.136;2024-01-06T05:01:21;100533.38;;;4.71;100.00
41862;BME280;27537;57.134;-2.136;2024-01-06T05:03:48;100567.88;;;4.77;100.00
41862;BME280;27537;57.134;-2.136;2024-01-06T05:06:15;100564.59;;;4.64;100.00
41862;BME280;27537;57.134;-2.136;2024-01-06T05:08:41;100570.66;;;4.64;100.00
41862;BME280;27537;57.134;-2.136;2024-01-06T05:11:11;100581.06;;;4.63;100.00
41862;BME280;27537;57.134;-2.136;2024-01-06T05:13:38;100570.81;;;4.53;100.00
41862;BME280;27537;57.134;-2.136;2024-01-06T05:16:05;100581.97;;;4.59;100.00
41862;BME280;27537;57.134;-2.136;2024-01-06T05:18:32;100582.03;;;4.54;100.00
41862;BME280;27537;57.134;-2.136;2024-01-06T05:20:59;100580.50;;;4.41;100.00
41862;BME280;27537;57.134;-2.136;2024-01-06T05:23:26;100591.59;;;4.52;100.00
41862;BME280;27537;57.134;-2.136;2024-01-06T05:25:53;100598.44;;;4.54;100.00
41862;BME280;27537;57.134;-2.136;2024-01-06T05:28:19;100592.53;;;4.46;100.00
41862;BME280;27537;57.134;-2.136;2024-01-06T05:30:46;100594.31;;;4.43;100.00
41862;BME280;27537;57.134;-2.136;2024-01-06T05:33:13;100603.84;;;4.41;100.00
41862;BME280;27537;57.134;-2.136;2024-01-06T05:35:41;100597.94;;;4.31;100.00
41862;BME280;27537;57.134;-2.136;2024-01-06T05:38:08;100615.19;;;4.32;100.00
41862;BME280;27537;57.134;-2.136;2024-01-06T05:40:35;100610.22;;;4.16;100.00
41862;BME280;27537;57.134;-2.136;2024-01-06T05:43:01;100606.69;;;4.24;100.00
41862;BME280;27537;57.134;-2.136;2024-01-06T05:45:28;100618.81;;;4.22;100.00
41862;BME280;27537;57.134;-2.136;2024-01-06T05:47:56;100617.22;;;4.10;100.00
41862;BME280;27537;57.134;-2.136;2024-01-06T05:50:24;100625.75;;;4.18;100.00
41862;BME280;27537;57.134;-2.136;2024-01-06T05:52:50;100630.00;;;4.24;100.00
41862;BME280;27537;57.134;-2.136;2024-01-06T05:55:19;100633.50;;;4.19;100.00
41862;BME280;27537;57.134;-2.136;2024-01-06T05:57:45;100635.19;;;4.22;100.00
41862;BME280;27537;57.134;-2.136;2024-01-06T06:00:12;100643.09;;;4.13;100.00
41862;BME280;27537;57.134;-2.136;2024-01-06T06:02:40;100641.53;;;3.98;100.00
41862;BME280;27537;57.134;-2.136;2024-01-06T06:05:07;100643.16;;;4.05;100.00
41862;BME280;27537;57.134;-2.136;2024-01-06T06:07:34;100654.47;;;4.01;100.00
41862;BME280;27537;57.134;-2.136;2024-01-06T06:10:07;100653.63;;;3.97;100.00
41862;BME280;27537;57.134;-2.136;2024-01-06T06:12:35;100656.38;;;3.85;100.00
41862;BME280;27537;57.134;-2.136;2024-01-06T06:15:05;100658.91;;;3.90;100.00
41862;BME280;27537;57.134;-2.136;2024-01-06T06:17:33;100676.97;;;3.94;100.00
41862;BME280;27537;57.134;-2.136;2024-01-06T06:20:00;100649.53;;;3.79;100.00
41862;BME280;27537;57.134;-2.136;2024-01-06T06:22:27;100653.03;;;3.75;100.00
41862;BME280;27537;57.134;-2.136;2024-01-06T06:24:57;100666.00;;;3.74;100.00
41862;BME280;27537;57.134;-2.136;2024-01-06T06:27:24;100673.78;;;3.72;100.00
41862;BME280;27537;57.134;-2.136;2024-01-06T06:29:51;100685.94;;;3.66;100.00
41862;BME280;27537;57.134;-2.136;2024-01-06T06:32:18;100688.66;;;3.49;100.00
41862;BME280;27537;57.134;-2.136;2024-01-06T06:34:45;100679.22;;;3.41;100.00
41862;BME280;27537;57.134;-2.136;2024-01-06T06:37:11;100692.34;;;3.26;100.00
41862;BME280;27537;57.134;-2.136;2024-01-06T06:39:38;100680.34;;;3.14;100.00
41862;BME280;27537;57.134;-2.136;2024-01-06T06:42:05;100666.50;;;3.17;100.00
41862;BME280;27537;57.134;-2.136;2024-01-06T06:44:31;100700.88;;;3.33;100.00
41862;BME280;27537;57.134;-2.136;2024-01-06T06:46:58;100700.94;;;3.30;100.00
41862;BME280;27537;57.134;-2.136;2024-01-06T06:49:25;100700.09;;;3.28;100.00
41862;BME280;27537;57.134;-2.136;2024-01-06T06:51:52;100711.22;;;3.33;100.00
41862;BME280;27537;57.134;-2.136;2024-01-06T06:54:19;100716.38;;;3.36;100.00
41862;BME280;27537;57.134;-2.136;2024-01-06T06:56:45;100724.88;;;3.50;100.00
41862;BME280;27537;57.134;-2.136;2024-01-06T06:59:12;100723.97;;;3.59;100.00
41862;BME280;27537;57.134;-2.136;2024-01-06T07:01:39;100728.28;;;3.58;100.00
41862;BME280;27537;57.134;-2.136;2024-01-06T07:04:06;100728.28;;;3.57;100.00
41862;BME280;27537;57.134;-2.136;2024-01-06T07:06:33;100734.31;;;3.60;100.00
41862;BME280;27537;57.134;-2.136;2024-01-06T07:09:00;100722.25;;;3.56;100.00
41862;BME280;27537;57.134;-2.136;2024-01-06T07:11:26;100734.28;;;3.62;100.00
41862;BME280;27537;57.134;-2.136;2024-01-06T07:13:54;100744.66;;;3.59;100.00
41862;BME280;27537;57.134;-2.136;2024-01-06T07:16:20;100756.78;;;3.55;100.00
41862;BME280;27537;57.134;-2.136;2024-01-06T07:18:47;100750.81;;;3.47;100.00
41862;BME280;27537;57.134;-2.136;2024-01-06T07:21:14;100749.09;;;3.49;100.00
41862;BME280;27537;57.134;-2.136;2024-01-06T07:23:41;100758.50;;;3.56;100.00
41862;BME280;27537;57.134;-2.136;2024-01-06T07:26:09;100759.38;;;3.54;100.00
41862;BME280;27537;57.134;-2.136;2024-01-06T07:28:35;100771.47;;;3.56;100.00
41862;BME280;27537;57.134;-2.136;2024-01-06T07:31:02;100783.50;;;3.57;100.00
41862;BME280;27537;57.134;-2.136;2024-01-06T07:33:29;100786.09;;;3.57;100.00
41862;BME280;27537;57.134;-2.136;2024-01-06T07:35:56;100778.31;;;3.59;100.00
41862;BME280;27537;57.134;-2.136;2024-01-06T07:38:22;100779.22;;;3.59;100.00
41862;BME280;27537;57.134;-2.136;2024-01-06T07:40:49;100784.31;;;3.69;100.00
41862;BME280;27537;57.134;-2.136;2024-01-06T07:43:16;100787.78;;;3.65;100.00
41862;BME280;27537;57.134;-2.136;2024-01-06T07:45:42;100792.09;;;3.67;100.00
41862;BME280;27537;57.134;-2.136;2024-01-06T07:48:09;100804.13;;;3.73;100.00
41862;BME280;27537;57.134;-2.136;2024-01-06T07:50:36;100803.28;;;3.69;100.00
41862;BME280;27537;57.134;-2.136;2024-01-06T07:53:02;100806.72;;;3.68;100.00
41862;BME280;27537;57.134;-2.136;2024-01-06T07:55:29;100812.81;;;3.61;100.00
41862;BME280;27537;57.134;-2.136;2024-01-06T07:57:56;100824.06;;;3.63;100.00
41862;BME280;27537;57.134;-2.136;2024-01-06T08:00:22;100827.53;;;3.59;100.00
41862;BME280;27537;57.134;-2.136;2024-01-06T08:02:49;100837.84;;;3.64;100.00
41862;BME280;27537;57.134;-2.136;2024-01-06T08:05:16;100831.00;;;3.55;100.00
41862;BME280;27537;57.134;-2.136;2024-01-06T08:07:43;100843.13;;;3.53;100.00
41862;BME280;27537;57.134;-2.136;2024-01-06T08:10:09;100833.66;;;3.46;100.00
41862;BME280;27537;57.134;-2.136;2024-01-06T08:12:36;100833.69;;;3.44;100.00
41862;BME280;27537;57.134;-2.136;2024-01-06T08:15:04;100847.47;;;3.48;100.00
41862;BME280;27537;57.134;-2.136;2024-01-06T08:17:31;100840.59;;;3.40;100.00
41862;BME280;27537;57.134;-2.136;2024-01-06T08:19:57;100860.44;;;3.41;100.00
41862;BME280;27537;57.134;-2.136;2024-01-06T08:22:24;100857.88;;;3.35;100.00
41862;BME280;27537;57.134;-2.136;2024-01-06T08:24:53;100865.66;;;3.29;100.00
41862;BME280;27537;57.134;-2.136;2024-01-06T08:27:19;100874.34;;;3.25;100.00
41862;BME280;27537;57.134;-2.136;2024-01-06T08:29:47;100879.28;;;3.65;100.00
41862;BME280;27537;57.134;-2.136;2024-01-06T08:32:14;100876.69;;;3.64;100.00
41862;BME280;27537;57.134;-2.136;2024-01-06T08:34:41;100882.78;;;3.55;100.00
41862;BME280;27537;57.134;-2.136;2024-01-06T08:37:08;100886.38;;;3.34;100.00
41862;BME280;27537;57.134;-2.136;2024-01-06T08:39:35;100895.03;;;3.25;100.00
41862;BME280;27537;57.134;-2.136;2024-01-06T08:42:01;100901.09;;;3.19;100.00
41862;BME280;27537;57.134;-2.136;2024-01-06T08:44:28;100904.53;;;3.17;100.00
41862;BME280;27537;57.134;-2.136;2024-01-06T08:46:55;100901.16;;;3.12;100.00
41862;BME280;27537;57.134;-2.136;2024-01-06T08:49:22;100912.34;;;3.14;100.00
41862;BME280;27537;57.134;-2.136;2024-01-06T08:51:49;100918.38;;;3.17;100.00
41862;BME280;27537;57.134;-2.136;2024-01-06T08:54:16;100920.91;;;3.25;100.00
41862;BME280;27537;57.134;-2.136;2024-01-06T08:56:43;100902.00;;;3.11;100.00
41862;BME280;27537;57.134;-2.136;2024-01-06T08:59:10;100925.22;;;3.28;100.00
41862;BME280;27537;57.134;-2.136;2024-01-06T09:01:36;100926.94;;;3.29;100.00
41862;BME280;27537;57.134;-2.136;2024-01-06T09:04:04;100937.28;;;3.32;100.00
41862;BME280;27537;57.134;-2.136;2024-01-06T09:06:33;100930.28;;;3.51;100.00
41862;BME280;27537;57.134;-2.136;2024-01-06T09:09:00;100938.69;;;3.87;100.00
41862;BME280;27537;57.134;-2.136;2024-01-06T09:11:27;100937.72;;;4.00;100.00
41862;BME280;27537;57.134;-2.136;2024-01-06T09:13:53;100929.94;;;4.03;100.00
41862;BME280;27537;57.134;-2.136;2024-01-06T09:16:20;100947.25;;;3.99;100.00
41862;BME280;27537;57.134;-2.136;2024-01-06T09:18:47;100949.97;;;3.83;100.00
41862;BME280;27537;57.134;-2.136;2024-01-06T09:21:14;100942.28;;;3.61;100.00
41862;BME280;27537;57.134;-2.136;2024-01-06T09:23:41;100948.38;;;3.55;100.00
41862;BME280;27537;57.134;-2.136;2024-01-06T09:26:08;100952.69;;;3.53;100.00
41862;BME280;27537;57.134;-2.136;2024-01-06T09:28:35;100965.66;;;3.52;100.00
41862;BME280;27537;57.134;-2.136;2024-01-06T09:31:01;100970.81;;;3.53;100.00
41862;BME280;27537;57.134;-2.136;2024-01-06T09:33:28;100973.41;;;3.52;100.00
41862;BME280;27537;57.134;-2.136;2024-01-06T09:35:55;100978.59;;;3.52;100.00
41862;BME280;27537;57.134;-2.136;2024-01-06T09:38:22;100970.84;;;3.49;100.00
41862;BME280;27537;57.134;-2.136;2024-01-06T09:40:49;100980.31;;;3.54;100.00
41862;BME280;27537;57.134;-2.136;2024-01-06T09:43:16;100993.22;;;3.59;100.00
41862;BME280;27537;57.134;-2.136;2024-01-06T09:45:44;100986.34;;;3.56;100.00
41862;BME280;27537;57.134;-2.136;2024-01-06T09:48:16;100989.75;;;3.66;100.00
41862;BME280;27537;57.134;-2.136;2024-01-06T09:50:44;100994.91;;;3.71;100.00
41862;BME280;27537;57.134;-2.136;2024-01-06T09:53:13;100996.66;;;3.70;100.00
41862;BME280;27537;57.134;-2.136;2024-01-06T09:55:40;101002.69;;;3.74;100.00
41862;BME280;27537;57.134;-2.136;2024-01-06T09:58:09;101007.84;;;3.72;100.00
41862;BME280;27537;57.134;-2.136;2024-01-06T10:00:37;101018.22;;;3.74;100.00
41862;BME280;27537;57.134;-2.136;2024-01-06T10:03:04;101011.31;;;3.71;100.00
41862;BME280;27537;57.134;-2.136;2024-01-06T10:05:31;101017.34;;;3.72;100.00
41862;BME280;27537;57.134;-2.136;2024-01-06T10:07:59;101025.09;;;3.73;100.00
41862;BME280;27537;57.134;-2.136;2024-01-06T10:10:27;101021.72;;;3.64;100.00
41862;BME280;27537;57.134;-2.136;2024-01-06T10:12:53;101032.91;;;3.70;100.00
41862;BME280;27537;57.134;-2.136;2024-01-06T10:15:21;101010.50;;;3.54;100.00
41862;BME280;27537;57.134;-2.136;2024-01-06T10:17:48;101042.38;;;3.76;100.00
41862;BME280;27537;57.134;-2.136;2024-01-06T10:20:16;101036.28;;;3.82;100.00
41862;BME280;27537;57.134;-2.136;2024-01-06T10:22:44;101057.81;;;3.99;100.00
41862;BME280;27537;57.134;-2.136;2024-01-06T10:25:12;101059.50;;;4.06;100.00
41862;BME280;27537;57.134;-2.136;2024-01-06T10:27:39;101057.75;;;4.10;100.00
41862;BME280;27537;57.134;-2.136;2024-01-06T10:30:08;101062.91;;;4.14;100.00
41862;BME280;27537;57.134;-2.136;2024-01-06T10:32:35;101068.06;;;4.17;100.00
41862;BME280;27537;57.134;-2.136;2024-01-06T10:35:04;101068.91;;;4.19;100.00
41862;BME280;27537;57.134;-2.136;2024-01-06T10:37:32;101068.81;;;4.33;100.00
41862;BME280;27537;57.134;-2.136;2024-01-06T10:40:14;101074.75;;;4.49;100.00
41862;BME280;27537;57.134;-2.136;2024-01-06T10:42:43;101078.19;;;4.53;100.00
41862;BME280;27537;57.134;-2.136;2024-01-06T10:45:13;101080.00;;;4.46;100.00
41862;BME280;27537;57.134;-2.136;2024-01-06T10:47:42;101069.56;;;4.49;100.00
41862;BME280;27537;57.134;-2.136;2024-01-06T10:50:13;101069.63;;;4.46;100.00
41862;BME280;27537;57.134;-2.136;2024-01-06T10:52:41;101073.88;;;4.53;100.00
41862;BME280;27537;57.134;-2.136;2024-01-06T10:55:09;101051.50;;;4.42;100.00
41862;BME280;27537;57.134;-2.136;2024-01-06T10:57:37;101079.88;;;4.60;100.00
41862;BME280;27537;57.134;-2.136;2024-01-06T11:00:05;101071.31;;;4.46;100.00
41862;BME280;27537;57.134;-2.136;2024-01-06T11:02:33;101081.69;;;4.46;100.00
41862;BME280;27537;57.134;-2.136;2024-01-06T11:05:00;101089.28;;;4.75;100.00
41862;BME280;27537;57.134;-2.136;2024-01-06T11:07:28;101077.16;;;4.75;100.00
41862;BME280;27537;57.134;-2.136;2024-01-06T11:10:18;101094.28;;;4.97;100.00
41862;BME280;27537;57.134;-2.136;2024-01-06T11:12:45;101090.78;;;5.01;100.00
41862;BME280;27537;57.134;-2.136;2024-01-06T11:15:45;101092.59;;;4.92;100.00
41862;BME280;27537;57.134;-2.136;2024-01-06T11:18:37;101095.84;;;5.14;100.00
41862;BME280;27537;57.134;-2.136;2024-01-06T11:23:39;101100.00;;;5.32;100.00
41862;BME280;27537;57.134;-2.136;2024-01-06T11:26:07;101100.88;;;5.33;100.00
41862;BME280;27537;57.134;-2.136;2024-01-06T11:28:46;101090.41;;;5.41;100.00
41862;BME280;27537;57.134;-2.136;2024-01-06T11:31:13;101104.13;;;5.54;100.00
41862;BME280;27537;57.134;-2.136;2024-01-06T11:33:44;101104.13;;;5.54;100.00
41862;BME280;27537;57.134;-2.136;2024-01-06T11:36:14;101101.47;;;5.58;100.00
41862;BME280;27537;57.134;-2.136;2024-01-06T11:38:42;101096.19;;;5.64;100.00
41862;BME280;27537;57.134;-2.136;2024-01-06T11:41:47;101099.63;;;5.66;100.00
41862;BME280;27537;57.134;-2.136;2024-01-06T11:44:18;101090.19;;;5.58;100.00
41862;BME280;27537;57.134;-2.136;2024-01-06T11:46:45;101106.69;;;5.55;100.00
41862;BME280;27537;57.134;-2.136;2024-01-06T11:49:12;101087.59;;;5.58;100.00
41862;BME280;27537;57.134;-2.136;2024-01-06T11:51:41;101100.50;;;5.68;100.00
41862;BME280;27537;57.134;-2.136;2024-01-06T11:54:09;101105.63;;;5.75;100.00
41862;BME280;27537;57.134;-2.136;2024-01-06T11:56:36;101102.22;;;5.68;100.00
41862;BME280;27537;57.134;-2.136;2024-01-06T11:59:03;101100.47;;;5.70;100.00
41862;BME280;27537;57.134;-2.136;2024-01-06T12:01:38;101112.59;;;5.69;100.00
41862;BME280;27537;57.134;-2.136;2024-01-06T12:04:06;101111.78;;;5.64;100.00
41862;BME280;27537;57.134;-2.136;2024-01-06T12:06:34;101087.59;;;5.58;100.00
41862;BME280;27537;57.134;-2.136;2024-01-06T12:09:09;101105.63;;;5.75;100.00
41862;BME280;27537;57.134;-2.136;2024-01-06T12:11:36;101106.47;;;5.75;100.00
41862;BME280;27537;57.134;-2.136;2024-01-06T12:14:04;101107.38;;;5.73;100.00
41862;BME280;27537;57.134;-2.136;2024-01-06T12:16:31;101115.06;;;5.82;100.00
41862;BME280;27537;57.134;-2.136;2024-01-06T12:18:59;101118.56;;;5.78;100.00
41862;BME280;27537;57.134;-2.136;2024-01-06T12:21:27;101104.75;;;5.76;100.00
41862;BME280;27537;57.134;-2.136;2024-01-06T12:23:54;101104.66;;;5.82;100.00
41862;BME280;27537;57.134;-2.136;2024-01-06T12:26:41;101093.47;;;5.77;100.00
41862;BME280;27537;57.134;-2.136;2024-01-06T12:29:08;101102.19;;;5.69;100.00
41862;BME280;27537;57.134;-2.136;2024-01-06T12:31:35;101114.06;;;5.97;100.00
41862;BME280;27537;57.134;-2.136;2024-01-06T12:34:09;101106.19;;;6.01;100.00
41862;BME280;27537;57.134;-2.136;2024-01-06T12:36:37;101105.97;;;6.18;100.00
41862;BME280;27537;57.134;-2.136;2024-01-06T12:39:05;101105.13;;;6.16;100.00
41862;BME280;27537;57.134;-2.136;2024-01-06T12:41:31;101099.66;;;6.36;100.00
41862;BME280;27537;57.134;-2.136;2024-01-06T12:43:59;101095.47;;;6.26;100.00